createdAt,value
2019-03-16T00:00:01.410Z,5.83
2019-03-16T00:02:29.500Z,5.63
2019-03-16T00:04:57.693Z,5.00
2019-03-16T00:07:32.862Z,5.27
2019-03-16T00:09:58.018Z,5.90
2019-03-16T00:12:26.196Z,6.00
2019-03-16T00:14:54.576Z,6.00
2019-03-16T00:17:23.781Z,6.07
2019-03-16T00:19:52.179Z,6.63
2019-03-16T00:22:21.872Z,5.93
2019-03-16T00:24:50.052Z,6.40
2019-03-16T00:27:18.188Z,6.00
2019-03-16T00:29:46.352Z,6.27
2019-03-16T00:32:14.496Z,5.93
2019-03-16T00:34:42.641Z,5.80
2019-03-16T00:37:11.055Z,6.57
2019-03-16T00:39:39.635Z,6.43
2019-03-16T00:42:07.820Z,5.73
2019-03-16T00:44:36.218Z,5.23
2019-03-16T00:47:04.449Z,4.97
2019-03-16T00:49:32.554Z,5.53
2019-03-16T00:52:03.127Z,5.90
2019-03-16T00:54:31.290Z,5.10
2019-03-16T00:57:00.470Z,5.63
2019-03-16T00:59:29.693Z,6.13
2019-03-16T01:01:59.588Z,6.77
2019-03-16T01:04:27.774Z,6.40
2019-03-16T01:06:56.044Z,5.93
2019-03-16T01:09:24.195Z,5.57
2019-03-16T01:11:52.418Z,6.30
2019-03-16T01:14:21.708Z,5.73
2019-03-16T01:16:49.886Z,5.80
2019-03-16T01:19:18.060Z,5.37
2019-03-16T01:21:46.217Z,5.37
2019-03-16T01:24:14.319Z,5.23
2019-03-16T01:26:43.480Z,5.77
2019-03-16T01:29:12.669Z,5.10
2019-03-16T01:31:40.795Z,6.03
2019-03-16T01:34:08.991Z,5.90
2019-03-16T01:36:38.949Z,6.03
2019-03-16T01:39:07.445Z,5.57
2019-03-16T01:41:35.557Z,5.37
2019-03-16T01:44:03.705Z,5.37
2019-03-16T01:46:31.783Z,6.33
2019-03-16T01:48:59.872Z,5.80
2019-03-16T01:51:29.802Z,5.60
2019-03-16T01:53:59.823Z,6.10
2019-03-16T01:56:27.913Z,5.30
2019-03-16T01:58:56.020Z,5.63
2019-03-16T02:01:24.064Z,6.30
2019-03-16T02:03:52.128Z,5.37
2019-03-16T02:06:21.769Z,4.90
2019-03-16T02:08:50.162Z,6.00
2019-03-16T02:11:18.305Z,5.57
2019-03-16T02:13:46.562Z,5.20
2019-03-16T02:16:15.159Z,6.33
2019-03-16T02:18:43.259Z,5.80
2019-03-16T02:21:12.690Z,6.03
2019-03-16T02:23:40.828Z,6.30
2019-03-16T02:26:09.024Z,5.50
2019-03-16T02:28:37.277Z,6.00
2019-03-16T02:31:05.705Z,5.50
2019-03-16T02:33:35.289Z,5.30
2019-03-16T02:36:03.527Z,6.00
2019-03-16T02:38:31.651Z,5.73
2019-03-16T02:41:00.908Z,6.23
2019-03-16T02:43:29.799Z,5.60
2019-03-16T02:45:57.970Z,5.77
2019-03-16T02:48:26.312Z,5.30
2019-03-16T02:50:54.867Z,6.87
2019-03-16T02:53:22.970Z,6.30
2019-03-16T02:55:51.561Z,5.03
2019-03-16T02:58:20.000Z,5.83
2019-03-16T03:00:49.264Z,5.53
2019-03-16T03:03:29.479Z,6.17
2019-03-16T03:05:49.465Z,5.73
2019-03-16T03:08:18.178Z,6.33
2019-03-16T03:10:46.323Z,6.17
2019-03-16T03:13:14.730Z,6.53
2019-03-16T03:15:43.408Z,5.80
2019-03-16T03:18:11.709Z,5.40
2019-03-16T03:20:40.214Z,6.33
2019-03-16T03:23:08.501Z,6.40
2019-03-16T03:25:36.721Z,6.07
2019-03-16T03:28:05.036Z,6.83
2019-03-16T03:30:33.204Z,6.17
2019-03-16T03:33:01.398Z,5.63
2019-03-16T03:35:30.810Z,7.07
2019-03-16T03:38:00.730Z,6.60
2019-03-16T03:40:29.942Z,6.57
2019-03-16T03:42:59.317Z,6.37
2019-03-16T03:45:27.531Z,6.30
2019-03-16T03:47:57.456Z,6.10
2019-03-16T03:50:25.682Z,5.70
2019-03-16T03:52:53.785Z,6.43
2019-03-16T03:55:21.964Z,6.43
2019-03-16T03:57:50.378Z,6.47
2019-03-16T04:00:18.562Z,6.10
2019-03-16T04:02:46.824Z,6.67
2019-03-16T04:05:15.497Z,5.63
2019-03-16T04:07:44.701Z,6.03
2019-03-16T04:10:12.978Z,5.83
2019-03-16T04:12:41.231Z,5.73
2019-03-16T04:15:09.445Z,6.23
2019-03-16T04:17:37.618Z,6.67
2019-03-16T04:20:06.202Z,6.20
2019-03-16T04:22:34.376Z,5.77
2019-03-16T04:25:02.582Z,5.77
2019-03-16T04:27:31.146Z,6.20
2019-03-16T04:29:59.325Z,6.43
2019-03-16T04:32:28.668Z,5.73
2019-03-16T04:34:56.855Z,6.10
2019-03-16T04:37:26.430Z,6.03
2019-03-16T04:39:54.702Z,6.93
2019-03-16T04:42:22.836Z,5.50
2019-03-16T04:44:50.953Z,5.30
2019-03-16T04:47:20.871Z,5.90
2019-03-16T04:49:49.249Z,6.13
2019-03-16T04:52:17.289Z,5.80
2019-03-16T04:54:45.373Z,6.00
2019-03-16T04:57:13.683Z,6.00
2019-03-16T04:59:42.144Z,5.60
2019-03-16T05:02:10.179Z,5.70
2019-03-16T05:04:42.606Z,5.60
2019-03-16T05:07:08.416Z,6.27
2019-03-16T05:09:37.465Z,5.47
2019-03-16T05:12:05.932Z,6.87
2019-03-16T05:14:34.109Z,5.83
2019-03-16T05:17:03.309Z,6.63
2019-03-16T05:19:31.682Z,4.93
2019-03-16T05:21:59.742Z,6.07
2019-03-16T05:24:27.957Z,5.20
2019-03-16T05:26:57.352Z,6.37
2019-03-16T05:29:25.429Z,6.27
2019-03-16T05:31:53.620Z,6.70
2019-03-16T05:34:23.217Z,5.53
2019-03-16T05:36:51.424Z,5.63
2019-03-16T05:39:19.538Z,5.67
2019-03-16T05:41:48.570Z,5.67
2019-03-16T05:44:18.537Z,5.87
2019-03-16T05:46:46.703Z,6.73
2019-03-16T05:49:15.160Z,7.10
2019-03-16T05:51:44.494Z,6.30
2019-03-16T05:54:12.745Z,5.40
2019-03-16T05:56:41.221Z,5.57
2019-03-16T05:59:09.393Z,5.50
2019-03-16T06:01:39.073Z,5.30
2019-03-16T06:04:07.592Z,5.43
2019-03-16T06:06:35.641Z,4.87
2019-03-16T06:09:04.453Z,6.10
2019-03-16T06:11:32.632Z,5.17
2019-03-16T06:14:00.812Z,7.20
2019-03-16T06:16:28.907Z,5.83
2019-03-16T06:18:59.131Z,6.40
2019-03-16T06:21:27.209Z,5.60
2019-03-16T06:23:55.285Z,5.43
2019-03-16T06:26:24.507Z,6.80
2019-03-16T06:28:53.691Z,6.20
2019-03-16T06:31:23.626Z,6.73
2019-03-16T06:33:53.272Z,5.50
2019-03-16T06:36:23.251Z,6.80
2019-03-16T06:38:51.424Z,4.70
2019-03-16T06:41:19.924Z,4.80
2019-03-16T06:43:48.473Z,5.40
2019-03-16T06:46:16.573Z,6.57
2019-03-16T06:48:45.151Z,5.87
2019-03-16T06:51:13.437Z,6.07
2019-03-16T06:53:43.354Z,8.87
2019-03-16T06:56:12.058Z,6.20
2019-03-16T06:58:40.065Z,5.70
2019-03-16T07:01:09.243Z,6.70
2019-03-16T07:03:39.784Z,5.63
2019-03-16T07:06:08.011Z,4.77
2019-03-16T07:08:36.340Z,13.37
2019-03-16T07:11:05.990Z,6.30
2019-03-16T07:13:36.026Z,5.37
2019-03-16T07:16:03.922Z,5.67
2019-03-16T07:18:33.402Z,6.83
2019-03-16T07:21:04.506Z,5.93
2019-03-16T07:23:34.525Z,5.63
2019-03-16T07:26:14.221Z,7.63
2019-03-16T07:28:32.974Z,6.40
2019-03-16T07:31:01.198Z,5.13
2019-03-16T07:33:29.546Z,6.20
2019-03-16T07:35:57.726Z,5.07
2019-03-16T07:38:25.772Z,9.30
2019-03-16T07:40:54.090Z,5.80
2019-03-16T07:43:23.401Z,5.83
2019-03-16T07:45:52.006Z,5.53
2019-03-16T07:48:22.186Z,4.73
2019-03-16T07:50:50.575Z,4.97
2019-03-16T07:53:18.669Z,5.07
2019-03-16T07:55:48.678Z,4.67
2019-03-16T07:58:16.986Z,5.07
2019-03-16T08:00:46.869Z,5.47
2019-03-16T08:03:15.211Z,4.93
2019-03-16T08:05:43.561Z,5.23
2019-03-16T08:08:11.643Z,5.30
2019-03-16T08:10:41.762Z,5.13
2019-03-16T08:13:09.852Z,5.00
2019-03-16T08:15:37.892Z,4.73
2019-03-16T08:18:07.821Z,5.60
2019-03-16T08:20:35.950Z,5.10
2019-03-16T08:23:04.005Z,5.37
2019-03-16T08:25:33.305Z,6.10
2019-03-16T08:28:03.155Z,5.30
2019-03-16T08:30:31.225Z,5.53
2019-03-16T08:33:01.395Z,4.90
2019-03-16T08:35:29.536Z,4.73
2019-03-16T08:37:57.595Z,5.00
2019-03-16T08:40:25.928Z,5.17
2019-03-16T08:42:55.846Z,6.07
2019-03-16T08:45:24.253Z,5.30
2019-03-16T08:47:54.336Z,5.17
2019-03-16T08:50:22.431Z,5.43
2019-03-16T08:52:53.527Z,9.10
2019-03-16T08:55:22.470Z,5.70
2019-03-16T08:57:50.598Z,4.43
2019-03-16T09:00:18.819Z,5.77
2019-03-16T09:02:48.800Z,5.57
2019-03-16T09:05:18.761Z,5.17
2019-03-16T09:07:48.500Z,4.87
2019-03-16T09:10:17.976Z,5.30
2019-03-16T09:12:54.825Z,4.37
2019-03-16T09:15:17.561Z,5.43
2019-03-16T09:17:45.993Z,6.27
2019-03-16T09:20:14.153Z,4.57
2019-03-16T09:22:42.213Z,4.80
2019-03-16T09:25:10.450Z,4.60
2019-03-16T09:27:38.600Z,4.50
2019-03-16T09:30:07.719Z,4.17
2019-03-16T09:32:37.587Z,3.67
2019-03-16T09:35:06.838Z,3.87
2019-03-16T09:37:35.987Z,3.70
2019-03-16T09:40:04.624Z,3.57
2019-03-16T09:42:32.824Z,3.93
2019-03-16T09:45:00.996Z,3.83
2019-03-16T09:47:29.214Z,4.33
2019-03-16T09:49:57.444Z,4.30
2019-03-16T09:52:25.627Z,3.67
2019-03-16T09:54:54.033Z,5.17
2019-03-16T09:57:22.213Z,2.93
2019-03-16T09:59:54.865Z,3.17
2019-03-16T10:02:23.233Z,3.43
2019-03-16T10:04:51.436Z,3.97
2019-03-16T10:07:19.548Z,3.50
2019-03-16T10:09:48.207Z,3.77
2019-03-16T10:12:17.396Z,3.30
2019-03-16T10:14:46.701Z,3.33
2019-03-16T10:17:14.971Z,3.33
2019-03-16T10:19:44.082Z,3.90
2019-03-16T10:22:12.409Z,3.27
2019-03-16T10:24:40.821Z,3.73
2019-03-16T10:27:08.929Z,3.60
2019-03-16T10:29:38.028Z,4.30
2019-03-16T10:32:06.494Z,3.90
2019-03-16T10:34:34.676Z,4.03
2019-03-16T10:37:02.755Z,5.20
2019-03-16T10:39:31.128Z,4.77
2019-03-16T10:41:59.322Z,4.90
2019-03-16T10:44:27.494Z,3.40
2019-03-16T10:46:55.974Z,4.07
2019-03-16T10:49:24.196Z,3.30
2019-03-16T10:51:52.340Z,3.80
2019-03-16T10:54:22.389Z,3.53
2019-03-16T10:56:50.561Z,4.03
2019-03-16T10:59:19.248Z,3.30
2019-03-16T11:01:49.346Z,3.50
2019-03-16T11:04:17.432Z,3.23
2019-03-16T11:06:46.604Z,2.87
2019-03-16T11:09:14.904Z,4.00
2019-03-16T11:11:43.281Z,4.40
2019-03-16T11:14:11.369Z,2.90
2019-03-16T11:16:39.592Z,2.67
2019-03-16T11:19:07.642Z,3.07
2019-03-16T11:21:35.794Z,4.67
2019-03-16T11:24:04.097Z,2.60
2019-03-16T11:26:33.292Z,3.33
2019-03-16T11:29:08.926Z,2.80
2019-03-16T11:31:31.349Z,2.87
2019-03-16T11:33:59.452Z,2.83
2019-03-16T11:36:28.665Z,3.20
2019-03-16T11:38:56.948Z,4.13
2019-03-16T11:41:26.253Z,2.97
2019-03-16T11:43:55.446Z,2.00
2019-03-16T11:46:23.918Z,1.97
2019-03-16T11:48:52.189Z,2.73
2019-03-16T11:51:20.363Z,2.63
2019-03-16T11:53:49.141Z,2.73
2019-03-16T11:56:18.440Z,3.00
2019-03-16T11:58:46.778Z,2.83
2019-03-16T12:01:15.253Z,3.13
2019-03-16T12:03:43.441Z,3.10
2019-03-16T12:06:11.744Z,2.53
2019-03-16T12:08:40.089Z,2.93
2019-03-16T12:11:10.058Z,2.80
2019-03-16T12:13:38.718Z,3.00
2019-03-16T12:16:06.926Z,2.07
2019-03-16T12:18:35.192Z,2.80
2019-03-16T12:21:03.258Z,2.40
2019-03-16T12:23:31.443Z,2.50
2019-03-16T12:25:59.496Z,2.20
2019-03-16T12:28:29.416Z,2.00
2019-03-16T12:30:59.536Z,1.77
2019-03-16T12:33:27.590Z,1.70
2019-03-16T12:35:55.759Z,2.20
2019-03-16T12:38:24.175Z,1.83
2019-03-16T12:40:53.938Z,1.80
2019-03-16T12:43:22.200Z,1.77
2019-03-16T12:45:50.487Z,1.43
2019-03-16T12:48:20.789Z,2.03
2019-03-16T12:50:49.053Z,1.93
2019-03-16T12:53:18.740Z,1.70
2019-03-16T12:55:46.821Z,1.90
2019-03-16T12:58:14.988Z,2.03
2019-03-16T13:00:43.293Z,1.60
2019-03-16T13:03:11.485Z,1.47
2019-03-16T13:05:39.657Z,1.40
2019-03-16T13:08:09.071Z,1.80
2019-03-16T13:10:39.014Z,1.50
2019-03-16T13:13:07.060Z,1.47
2019-03-16T13:15:35.744Z,1.57
2019-03-16T13:18:03.826Z,1.53
2019-03-16T13:20:31.906Z,1.60
2019-03-16T13:23:00.183Z,2.87
2019-03-16T13:25:28.260Z,1.50
2019-03-16T13:27:56.308Z,2.00
2019-03-16T13:30:24.613Z,1.77
2019-03-16T13:32:53.888Z,1.40
2019-03-16T13:35:21.949Z,1.43
2019-03-16T13:37:50.110Z,1.40
2019-03-16T13:40:18.193Z,1.60
2019-03-16T13:42:46.314Z,1.40
2019-03-16T13:45:14.815Z,1.60
2019-03-16T13:47:42.853Z,1.50
2019-03-16T13:50:12.529Z,1.80
2019-03-16T13:52:42.126Z,1.50
2019-03-16T13:55:11.371Z,2.00
2019-03-16T13:57:39.435Z,1.90
2019-03-16T14:00:12.087Z,1.70
2019-03-16T14:02:38.495Z,1.80
2019-03-16T14:05:06.652Z,1.90
2019-03-16T14:07:35.994Z,1.50
2019-03-16T14:10:04.267Z,1.77
2019-03-16T14:12:32.312Z,1.60
2019-03-16T14:15:00.508Z,1.50
2019-03-16T14:17:30.965Z,1.50
2019-03-16T14:19:58.993Z,1.60
2019-03-16T14:22:27.409Z,1.57
2019-03-16T14:24:55.603Z,2.07
2019-03-16T14:27:25.116Z,1.67
2019-03-16T14:29:53.591Z,1.70
2019-03-16T14:32:21.793Z,1.80
2019-03-16T14:34:50.113Z,1.60
2019-03-16T14:37:18.501Z,1.70
2019-03-16T14:39:46.636Z,2.37
2019-03-16T14:42:14.805Z,4.50
2019-03-16T14:44:43.161Z,6.83
2019-03-16T14:47:11.464Z,2.07
2019-03-16T14:49:39.840Z,3.23
2019-03-16T14:52:08.521Z,2.40
2019-03-16T14:54:36.586Z,2.50
2019-03-16T14:57:06.013Z,2.30
2019-03-16T14:59:34.299Z,2.73
2019-03-16T15:02:04.206Z,2.80
2019-03-16T15:04:33.269Z,3.10
2019-03-16T15:07:01.478Z,3.30
2019-03-16T15:09:29.674Z,3.40
2019-03-16T15:11:57.846Z,3.00
2019-03-16T15:14:26.225Z,3.40
2019-03-16T15:16:54.403Z,3.57
2019-03-16T15:19:23.059Z,3.70
2019-03-16T15:21:51.339Z,4.30
2019-03-16T15:24:19.452Z,4.87
2019-03-16T15:26:47.534Z,4.80
2019-03-16T15:29:15.897Z,4.67
2019-03-16T15:31:44.094Z,5.37
2019-03-16T15:34:12.374Z,5.20
2019-03-16T15:36:41.160Z,4.77
2019-03-16T15:39:09.349Z,5.13
2019-03-16T15:41:37.527Z,5.00
2019-03-16T15:44:05.990Z,5.27
2019-03-16T15:46:34.196Z,5.27
2019-03-16T15:49:03.251Z,5.80
2019-03-16T15:51:31.407Z,5.70
2019-03-16T15:53:59.449Z,5.40
2019-03-16T15:56:29.280Z,5.23
2019-03-16T15:58:57.517Z,5.93
2019-03-16T16:01:25.539Z,5.90
2019-03-16T16:03:53.617Z,6.43
2019-03-16T16:06:21.888Z,6.80
2019-03-16T16:08:50.049Z,6.93
2019-03-16T16:11:19.913Z,6.80
2019-03-16T16:13:48.229Z,6.80
2019-03-16T16:16:16.395Z,7.33
2019-03-16T16:18:44.588Z,7.27
2019-03-16T16:21:13.501Z,7.73
2019-03-16T16:23:41.638Z,8.67
2019-03-16T16:26:11.164Z,8.83
2019-03-16T16:28:39.505Z,8.97
2019-03-16T16:31:16.216Z,9.00
2019-03-16T16:33:37.451Z,9.30
2019-03-16T16:36:08.416Z,10.27
2019-03-16T16:38:35.413Z,10.40
2019-03-16T16:41:03.473Z,10.17
2019-03-16T16:43:31.839Z,10.63
2019-03-16T16:45:59.932Z,9.40
2019-03-16T16:48:28.017Z,10.33
2019-03-16T16:50:56.434Z,10.00
2019-03-16T16:53:24.626Z,10.33
2019-03-16T16:55:52.809Z,9.93
2019-03-16T16:58:21.038Z,11.10
2019-03-16T17:00:49.784Z,11.17
2019-03-16T17:03:17.931Z,10.47
2019-03-16T17:05:46.417Z,11.40
2019-03-16T17:08:14.490Z,11.17
2019-03-16T17:10:42.605Z,9.63
2019-03-16T17:13:10.908Z,9.10
2019-03-16T17:15:39.010Z,8.63
2019-03-16T17:18:07.134Z,11.97
2019-03-16T17:20:35.437Z,8.67
2019-03-16T17:23:04.078Z,9.37
2019-03-16T17:25:33.822Z,8.37
2019-03-16T17:28:02.735Z,8.10
2019-03-16T17:30:31.218Z,9.00
2019-03-16T17:32:59.685Z,8.50
2019-03-16T17:35:28.200Z,9.00
2019-03-16T17:37:56.638Z,7.93
2019-03-16T17:40:24.745Z,7.17
2019-03-16T17:42:52.991Z,6.67
2019-03-16T17:45:21.425Z,7.20
2019-03-16T17:47:49.894Z,6.20
2019-03-16T17:50:18.663Z,6.67
2019-03-16T17:52:46.747Z,6.90
2019-03-16T17:55:14.922Z,6.53
2019-03-16T17:57:45.387Z,6.80
2019-03-16T18:00:14.252Z,5.87
2019-03-16T18:02:51.360Z,8.40
2019-03-16T18:05:12.494Z,5.73
2019-03-16T18:07:40.637Z,6.57
2019-03-16T18:10:08.918Z,6.57
2019-03-16T18:12:37.375Z,6.53
2019-03-16T18:15:05.635Z,6.23
2019-03-16T18:17:33.858Z,14.17
2019-03-16T18:20:03.874Z,6.93
2019-03-16T18:22:32.034Z,6.43
2019-03-16T18:25:00.546Z,6.00
2019-03-16T18:27:28.794Z,6.57
2019-03-16T18:29:57.285Z,8.73
2019-03-16T18:32:25.346Z,7.53
2019-03-16T18:34:55.317Z,7.27
2019-03-16T18:37:23.485Z,6.53
2019-03-16T18:39:51.991Z,6.50
2019-03-16T18:42:22.092Z,7.33
2019-03-16T18:44:50.269Z,7.10
2019-03-16T18:47:18.472Z,6.40
2019-03-16T18:49:47.118Z,6.70
2019-03-16T18:52:15.303Z,7.23
2019-03-16T18:54:43.622Z,6.20
2019-03-16T18:57:12.159Z,5.80
2019-03-16T18:59:40.738Z,8.20
2019-03-16T19:02:20.239Z,6.90
2019-03-16T19:04:39.065Z,6.50
2019-03-16T19:07:07.134Z,6.20
2019-03-16T19:09:35.329Z,9.00
2019-03-16T19:12:05.656Z,8.07
2019-03-16T19:14:33.787Z,5.73
2019-03-16T19:17:02.027Z,4.57
2019-03-16T19:19:31.422Z,17.47
2019-03-16T19:21:59.750Z,5.30
2019-03-16T19:24:27.848Z,5.87
2019-03-16T19:26:56.414Z,4.73
2019-03-16T19:29:24.553Z,11.70
2019-03-16T19:31:52.761Z,11.43
2019-03-16T19:34:21.285Z,5.97
2019-03-16T19:36:50.100Z,5.53
2019-03-16T19:39:18.284Z,8.67
2019-03-16T19:41:47.784Z,5.33
2019-03-16T19:44:15.956Z,4.97
2019-03-16T19:46:44.139Z,10.37
2019-03-16T19:49:12.826Z,5.03
2019-03-16T19:51:41.089Z,7.70
2019-03-16T19:54:09.250Z,6.13
2019-03-16T19:56:37.638Z,6.50
2019-03-16T19:59:06.868Z,6.17
2019-03-16T20:01:35.053Z,7.03
2019-03-16T20:04:03.177Z,5.90
2019-03-16T20:06:31.300Z,4.20
2019-03-16T20:08:59.458Z,4.67
2019-03-16T20:11:27.656Z,4.50
2019-03-16T20:13:55.784Z,8.37
2019-03-16T20:16:24.082Z,6.93
2019-03-16T20:18:54.029Z,4.17
2019-03-16T20:21:24.622Z,3.30
2019-03-16T20:23:52.665Z,4.23
2019-03-16T20:26:20.875Z,4.20
2019-03-16T20:28:49.521Z,4.23
2019-03-16T20:31:17.800Z,3.47
2019-03-16T20:33:46.250Z,5.13
2019-03-16T20:36:14.364Z,5.03
2019-03-16T20:38:44.280Z,4.53
2019-03-16T20:41:14.393Z,3.50
2019-03-16T20:43:42.611Z,4.07
2019-03-16T20:46:10.979Z,2.90
2019-03-16T20:48:41.551Z,3.53
2019-03-16T20:51:09.649Z,3.40
2019-03-16T20:53:37.860Z,3.60
2019-03-16T20:56:06.301Z,5.43
2019-03-16T20:58:34.434Z,3.70
2019-03-16T21:01:03.692Z,3.40
2019-03-16T21:03:32.214Z,3.93
2019-03-16T21:06:00.285Z,3.90
2019-03-16T21:08:28.477Z,3.50
2019-03-16T21:10:56.801Z,3.10
2019-03-16T21:13:26.137Z,3.27
2019-03-16T21:15:54.333Z,3.30
2019-03-16T21:18:22.701Z,4.43
2019-03-16T21:20:52.524Z,3.40
2019-03-16T21:23:20.718Z,4.30
2019-03-16T21:25:49.176Z,3.30
2019-03-16T21:28:17.371Z,3.67
2019-03-16T21:30:46.274Z,3.67
2019-03-16T21:33:14.746Z,3.67
2019-03-16T21:35:42.920Z,3.67
2019-03-16T21:38:12.120Z,3.27
2019-03-16T21:40:40.410Z,3.60
2019-03-16T21:43:08.589Z,3.60
2019-03-16T21:45:36.773Z,4.60
2019-03-16T21:48:05.341Z,3.20
2019-03-16T21:50:33.453Z,4.73
2019-03-16T21:53:01.701Z,5.23
2019-03-16T21:55:30.112Z,3.37
2019-03-16T21:57:58.258Z,3.40
2019-03-16T22:00:26.475Z,4.00
2019-03-16T22:02:54.831Z,3.30
2019-03-16T22:05:22.991Z,7.93
2019-03-16T22:07:51.057Z,3.43
2019-03-16T22:10:19.210Z,3.40
2019-03-16T22:12:47.346Z,3.60
2019-03-16T22:15:15.518Z,5.07
2019-03-16T22:17:43.893Z,3.67
2019-03-16T22:20:12.215Z,6.20
2019-03-16T22:22:40.362Z,4.20
2019-03-16T22:25:08.726Z,3.90
2019-03-16T22:27:36.927Z,3.67
2019-03-16T22:30:05.616Z,3.77
2019-03-16T22:32:35.110Z,4.10
2019-03-16T22:35:03.627Z,3.77
2019-03-16T22:37:31.785Z,4.97
2019-03-16T22:40:00.397Z,3.77
2019-03-16T22:42:30.621Z,4.40
2019-03-16T22:44:59.025Z,3.90
2019-03-16T22:47:27.233Z,4.37
2019-03-16T22:49:55.462Z,3.97
2019-03-16T22:52:23.482Z,4.20
2019-03-16T22:54:52.206Z,3.80
2019-03-16T22:57:22.123Z,4.60
2019-03-16T22:59:50.727Z,4.33
2019-03-16T23:02:19.516Z,4.20
2019-03-16T23:04:47.697Z,4.07
2019-03-16T23:07:17.481Z,3.57
2019-03-16T23:09:45.988Z,3.40
2019-03-16T23:12:14.088Z,4.10
2019-03-16T23:14:42.084Z,3.80
2019-03-16T23:17:10.619Z,3.73
2019-03-16T23:19:38.687Z,3.60
2019-03-16T23:22:06.980Z,3.30
2019-03-16T23:24:35.565Z,4.00
2019-03-16T23:27:03.995Z,5.97
2019-03-16T23:29:33.868Z,4.27
2019-03-16T23:32:03.396Z,3.10
2019-03-16T23:34:31.553Z,4.00
2019-03-16T23:37:00.253Z,3.63
2019-03-16T23:39:28.620Z,3.30
2019-03-16T23:41:56.913Z,4.33
2019-03-16T23:44:26.801Z,3.93
2019-03-16T23:46:55.401Z,3.43
2019-03-16T23:49:25.396Z,4.53
2019-03-16T23:51:53.538Z,4.27
2019-03-16T23:54:21.984Z,4.20
2019-03-16T23:56:50.679Z,4.10
2019-03-16T23:59:19.152Z,4.33
